sensor_id;sensor_type;location;lat;lon;timestamp;P1;durP1;ratioP1;P2;durP2;ratioP2
67762;SDS011;54566;52.022;5.582;2022-07-21T00:00:45;8.98;;;7.13;;
67762;SDS011;54566;52.022;5.582;2022-07-21T00:03:11;8.80;;;6.97;;
67762;SDS011;54566;52.022;5.582;2022-07-21T00:05:37;7.97;;;5.93;;
67762;SDS011;54566;52.022;5.582;2022-07-21T00:08:04;8.73;;;5.97;;
67762;SDS011;54566;52.022;5.582;2022-07-21T00:10:30;9.05;;;6.07;;
67762;SDS011;54566;52.022;5.582;2022-07-21T00:12:56;6.63;;;5.05;;
67762;SDS011;54566;52.022;5.582;2022-07-21T00:15:24;6.60;;;5.20;;
67762;SDS011;54566;52.022;5.582;2022-07-21T00:17:50;7.35;;;4.70;;
67762;SDS011;54566;52.022;5.582;2022-07-21T00:20:16;8.00;;;4.93;;
67762;SDS011;54566;52.022;5.582;2022-07-21T00:22:43;10.07;;;4.68;;
67762;SDS011;54566;52.022;5.582;2022-07-21T00:25:10;6.97;;;4.75;;
67762;SDS011;54566;52.022;5.582;2022-07-21T00:27:36;6.55;;;5.00;;
67762;SDS011;54566;52.022;5.582;2022-07-21T00:30:03;6.05;;;4.80;;
67762;SDS011;54566;52.022;5.582;2022-07-21T00:32:29;9.30;;;5.37;;
67762;SDS011;54566;52.022;5.582;2022-07-21T00:34:55;8.48;;;5.20;;
67762;SDS011;54566;52.022;5.582;2022-07-21T00:37:21;6.43;;;4.82;;
67762;SDS011;54566;52.022;5.582;2022-07-21T00:39:49;6.57;;;5.00;;
67762;SDS011;54566;52.022;5.582;2022-07-21T00:42:22;8.07;;;5.38;;
67762;SDS011;54566;52.022;5.582;2022-07-21T00:44:48;6.30;;;4.90;;
67762;SDS011;54566;52.022;5.582;2022-07-21T00:47:14;17.35;;;6.45;;
67762;SDS011;54566;52.022;5.582;2022-07-21T00:49:41;7.07;;;6.18;;
67762;SDS011;54566;52.022;5.582;2022-07-21T00:52:08;10.48;;;6.07;;
67762;SDS011;54566;52.022;5.582;2022-07-21T00:54:34;9.15;;;6.40;;
67762;SDS011;54566;52.022;5.582;2022-07-21T00:57:00;9.65;;;6.18;;
67762;SDS011;54566;52.022;5.582;2022-07-21T00:59:26;9.02;;;6.50;;
67762;SDS011;54566;52.022;5.582;2022-07-21T01:01:52;9.05;;;6.75;;
67762;SDS011;54566;52.022;5.582;2022-07-21T01:04:18;8.80;;;7.10;;
67762;SDS011;54566;52.022;5.582;2022-07-21T01:06:44;9.30;;;6.82;;
67762;SDS011;54566;52.022;5.582;2022-07-21T01:09:10;10.23;;;7.63;;
67762;SDS011;54566;52.022;5.582;2022-07-21T01:11:36;11.18;;;7.63;;
67762;SDS011;54566;52.022;5.582;2022-07-21T01:14:02;10.20;;;7.95;;
67762;SDS011;54566;52.022;5.582;2022-07-21T01:16:28;9.07;;;7.32;;
67762;SDS011;54566;52.022;5.582;2022-07-21T01:18:54;9.55;;;7.90;;
67762;SDS011;54566;52.022;5.582;2022-07-21T01:21:27;12.90;;;8.27;;
67762;SDS011;54566;52.022;5.582;2022-07-21T01:23:53;11.15;;;8.43;;
67762;SDS011;54566;52.022;5.582;2022-07-21T01:26:19;10.20;;;8.75;;
67762;SDS011;54566;52.022;5.582;2022-07-21T01:28:45;11.23;;;8.43;;
67762;SDS011;54566;52.022;5.582;2022-07-21T01:31:11;11.45;;;8.57;;
67762;SDS011;54566;52.022;5.582;2022-07-21T01:33:37;11.25;;;8.77;;
67762;SDS011;54566;52.022;5.582;2022-07-21T01:36:03;11.30;;;9.10;;
67762;SDS011;54566;52.022;5.582;2022-07-21T01:38:29;13.68;;;8.90;;
67762;SDS011;54566;52.022;5.582;2022-07-21T01:41:14;11.55;;;9.15;;
67762;SDS011;54566;52.022;5.582;2022-07-21T01:44:03;13.60;;;9.40;;
67762;SDS011;54566;52.022;5.582;2022-07-21T01:46:30;13.05;;;10.13;;
67762;SDS011;54566;52.022;5.582;2022-07-21T01:48:57;13.13;;;9.68;;
67762;SDS011;54566;52.022;5.582;2022-07-21T01:51:23;11.82;;;9.68;;
67762;SDS011;54566;52.022;5.582;2022-07-21T01:53:49;16.40;;;10.13;;
67762;SDS011;54566;52.022;5.582;2022-07-21T01:56:18;11.25;;;9.60;;
67762;SDS011;54566;52.022;5.582;2022-07-21T01:58:44;13.02;;;10.07;;
67762;SDS011;54566;52.022;5.582;2022-07-21T02:01:10;13.35;;;9.93;;
67762;SDS011;54566;52.022;5.582;2022-07-21T02:03:36;12.05;;;10.00;;
67762;SDS011;54566;52.022;5.582;2022-07-21T02:06:03;13.10;;;10.15;;
67762;SDS011;54566;52.022;5.582;2022-07-21T02:08:29;14.05;;;10.57;;
67762;SDS011;54566;52.022;5.582;2022-07-21T02:10:55;11.23;;;9.95;;
67762;SDS011;54566;52.022;5.582;2022-07-21T02:13:22;14.25;;;10.55;;
67762;SDS011;54566;52.022;5.582;2022-07-21T02:15:48;15.82;;;10.80;;
67762;SDS011;54566;52.022;5.582;2022-07-21T02:18:13;14.65;;;10.50;;
67762;SDS011;54566;52.022;5.582;2022-07-21T02:20:40;16.20;;;10.80;;
67762;SDS011;54566;52.022;5.582;2022-07-21T02:23:05;15.20;;;11.43;;
67762;SDS011;54566;52.022;5.582;2022-07-21T02:25:31;13.57;;;11.00;;
67762;SDS011;54566;52.022;5.582;2022-07-21T02:27:57;14.88;;;11.30;;
67762;SDS011;54566;52.022;5.582;2022-07-21T02:30:23;14.50;;;11.13;;
67762;SDS011;54566;52.022;5.582;2022-07-21T02:32:49;14.88;;;11.30;;
67762;SDS011;54566;52.022;5.582;2022-07-21T02:35:15;13.73;;;11.90;;
67762;SDS011;54566;52.022;5.582;2022-07-21T02:37:41;15.23;;;12.30;;
67762;SDS011;54566;52.022;5.582;2022-07-21T02:40:07;18.35;;;12.77;;
67762;SDS011;54566;52.022;5.582;2022-07-21T02:42:33;17.73;;;12.57;;
67762;SDS011;54566;52.022;5.582;2022-07-21T02:44:59;17.73;;;12.68;;
67762;SDS011;54566;52.022;5.582;2022-07-21T02:47:25;21.10;;;12.85;;
67762;SDS011;54566;52.022;5.582;2022-07-21T02:49:51;16.85;;;11.88;;
67762;SDS011;54566;52.022;5.582;2022-07-21T02:52:17;18.75;;;12.98;;
67762;SDS011;54566;52.022;5.582;2022-07-21T02:54:43;15.77;;;12.57;;
67762;SDS011;54566;52.022;5.582;2022-07-21T02:57:09;23.42;;;12.88;;
67762;SDS011;54566;52.022;5.582;2022-07-21T02:59:35;17.23;;;12.90;;
67762;SDS011;54566;52.022;5.582;2022-07-21T03:02:01;15.55;;;13.10;;
67762;SDS011;54566;52.022;5.582;2022-07-21T03:04:27;16.98;;;13.57;;
67762;SDS011;54566;52.022;5.582;2022-07-21T03:06:53;17.83;;;13.77;;
67762;SDS011;54566;52.022;5.582;2022-07-21T03:09:19;22.27;;;14.60;;
67762;SDS011;54566;52.022;5.582;2022-07-21T03:11:45;19.10;;;14.18;;
67762;SDS011;54566;52.022;5.582;2022-07-21T03:14:11;18.70;;;14.23;;
67762;SDS011;54566;52.022;5.582;2022-07-21T03:16:37;19.13;;;13.82;;
67762;SDS011;54566;52.022;5.582;2022-07-21T03:19:03;19.55;;;14.27;;
67762;SDS011;54566;52.022;5.582;2022-07-21T03:21:29;23.02;;;15.27;;
67762;SDS011;54566;52.022;5.582;2022-07-21T03:23:55;21.77;;;14.38;;
67762;SDS011;54566;52.022;5.582;2022-07-21T03:26:21;18.38;;;14.70;;
67762;SDS011;54566;52.022;5.582;2022-07-21T03:28:47;20.33;;;14.50;;
67762;SDS011;54566;52.022;5.582;2022-07-21T03:31:13;19.58;;;13.90;;
67762;SDS011;54566;52.022;5.582;2022-07-21T03:33:39;21.20;;;13.68;;
67762;SDS011;54566;52.022;5.582;2022-07-21T03:36:05;21.65;;;14.20;;
67762;SDS011;54566;52.022;5.582;2022-07-21T03:38:32;25.48;;;15.55;;
67762;SDS011;54566;52.022;5.582;2022-07-21T03:40:58;21.98;;;14.98;;
67762;SDS011;54566;52.022;5.582;2022-07-21T03:43:24;25.92;;;15.27;;
67762;SDS011;54566;52.022;5.582;2022-07-21T03:45:50;25.20;;;14.95;;
67762;SDS011;54566;52.022;5.582;2022-07-21T03:48:16;22.00;;;15.77;;
67762;SDS011;54566;52.022;5.582;2022-07-21T03:50:42;18.48;;;15.68;;
67762;SDS011;54566;52.022;5.582;2022-07-21T03:53:08;28.45;;;16.42;;
67762;SDS011;54566;52.022;5.582;2022-07-21T03:55:34;19.05;;;14.85;;
67762;SDS011;54566;52.022;5.582;2022-07-21T03:58:01;22.55;;;16.17;;
67762;SDS011;54566;52.022;5.582;2022-07-21T04:00:28;21.38;;;16.00;;
67762;SDS011;54566;52.022;5.582;2022-07-21T04:02:54;20.17;;;16.27;;
67762;SDS011;54566;52.022;5.582;2022-07-21T04:05:20;20.13;;;16.63;;
67762;SDS011;54566;52.022;5.582;2022-07-21T04:07:48;25.98;;;17.98;;
67762;SDS011;54566;52.022;5.582;2022-07-21T04:10:14;21.93;;;17.23;;
67762;SDS011;54566;52.022;5.582;2022-07-21T04:12:40;27.05;;;17.90;;
67762;SDS011;54566;52.022;5.582;2022-07-21T04:15:07;23.58;;;17.73;;
67762;SDS011;54566;52.022;5.582;2022-07-21T04:17:34;22.48;;;17.92;;
67762;SDS011;54566;52.022;5.582;2022-07-21T04:20:00;23.83;;;17.92;;
67762;SDS011;54566;52.022;5.582;2022-07-21T04:22:26;25.77;;;18.55;;
67762;SDS011;54566;52.022;5.582;2022-07-21T04:24:52;24.95;;;17.58;;
67762;SDS011;54566;52.022;5.582;2022-07-21T04:27:18;29.55;;;18.67;;
67762;SDS011;54566;52.022;5.582;2022-07-21T04:29:44;32.15;;;19.13;;
67762;SDS011;54566;52.022;5.582;2022-07-21T04:32:10;23.17;;;18.13;;
67762;SDS011;54566;52.022;5.582;2022-07-21T04:34:36;30.67;;;19.48;;
67762;SDS011;54566;52.022;5.582;2022-07-21T04:37:02;32.83;;;20.13;;
67762;SDS011;54566;52.022;5.582;2022-07-21T04:39:28;29.38;;;21.50;;
67762;SDS011;54566;52.022;5.582;2022-07-21T04:41:54;31.23;;;21.88;;
67762;SDS011;54566;52.022;5.582;2022-07-21T04:44:20;29.08;;;22.00;;
67762;SDS011;54566;52.022;5.582;2022-07-21T04:46:46;37.38;;;23.00;;
67762;SDS011;54566;52.022;5.582;2022-07-21T04:49:12;38.25;;;22.77;;
67762;SDS011;54566;52.022;5.582;2022-07-21T04:51:38;34.97;;;22.88;;
67762;SDS011;54566;52.022;5.582;2022-07-21T04:54:05;32.38;;;23.08;;
67762;SDS011;54566;52.022;5.582;2022-07-21T04:56:31;36.40;;;25.40;;
67762;SDS011;54566;52.022;5.582;2022-07-21T04:58:59;34.67;;;23.60;;
67762;SDS011;54566;52.022;5.582;2022-07-21T05:01:25;33.03;;;23.85;;
67762;SDS011;54566;52.022;5.582;2022-07-21T05:03:51;32.38;;;22.95;;
67762;SDS011;54566;52.022;5.582;2022-07-21T05:06:17;32.28;;;21.92;;
67762;SDS011;54566;52.022;5.582;2022-07-21T05:08:43;31.13;;;22.08;;
67762;SDS011;54566;52.022;5.582;2022-07-21T05:11:09;31.52;;;20.83;;
67762;SDS011;54566;52.022;5.582;2022-07-21T05:13:35;32.60;;;21.63;;
67762;SDS011;54566;52.022;5.582;2022-07-21T05:16:01;33.10;;;21.75;;
67762;SDS011;54566;52.022;5.582;2022-07-21T05:18:27;37.45;;;22.45;;
67762;SDS011;54566;52.022;5.582;2022-07-21T05:20:53;39.20;;;22.23;;
67762;SDS011;54566;52.022;5.582;2022-07-21T05:23:19;40.97;;;23.48;;
67762;SDS011;54566;52.022;5.582;2022-07-21T05:25:45;33.85;;;21.85;;
67762;SDS011;54566;52.022;5.582;2022-07-21T05:28:11;40.08;;;22.88;;
67762;SDS011;54566;52.022;5.582;2022-07-21T05:30:37;40.78;;;23.17;;
67762;SDS011;54566;52.022;5.582;2022-07-21T05:33:03;33.70;;;23.67;;
67762;SDS011;54566;52.022;5.582;2022-07-21T05:35:29;36.10;;;22.40;;
67762;SDS011;54566;52.022;5.582;2022-07-21T05:37:55;35.75;;;23.02;;
67762;SDS011;54566;52.022;5.582;2022-07-21T05:40:21;33.45;;;22.23;;
67762;SDS011;54566;52.022;5.582;2022-07-21T05:42:47;31.05;;;22.55;;
67762;SDS011;54566;52.022;5.582;2022-07-21T05:45:13;39.75;;;22.52;;
67762;SDS011;54566;52.022;5.582;2022-07-21T05:47:39;30.83;;;21.85;;
67762;SDS011;54566;52.022;5.582;2022-07-21T05:50:06;35.25;;;20.88;;
67762;SDS011;54566;52.022;5.582;2022-07-21T05:52:32;32.30;;;20.80;;
67762;SDS011;54566;52.022;5.582;2022-07-21T05:54:58;31.70;;;19.20;;
67762;SDS011;54566;52.022;5.582;2022-07-21T05:57:24;31.80;;;20.00;;
67762;SDS011;54566;52.022;5.582;2022-07-21T05:59:50;39.55;;;20.10;;
67762;SDS011;54566;52.022;5.582;2022-07-21T06:02:16;36.72;;;21.10;;
67762;SDS011;54566;52.022;5.582;2022-07-21T06:04:42;35.10;;;20.25;;
67762;SDS011;54566;52.022;5.582;2022-07-21T06:07:08;38.67;;;20.33;;
67762;SDS011;54566;52.022;5.582;2022-07-21T06:09:34;31.90;;;19.55;;
67762;SDS011;54566;52.022;5.582;2022-07-21T06:12:00;27.83;;;17.55;;
67762;SDS011;54566;52.022;5.582;2022-07-21T06:14:26;28.35;;;17.65;;
67762;SDS011;54566;52.022;5.582;2022-07-21T06:16:52;25.85;;;17.20;;
67762;SDS011;54566;52.022;5.582;2022-07-21T06:19:18;32.25;;;17.92;;
67762;SDS011;54566;52.022;5.582;2022-07-21T06:21:44;31.85;;;18.27;;
67762;SDS011;54566;52.022;5.582;2022-07-21T06:24:10;34.50;;;18.25;;
67762;SDS011;54566;52.022;5.582;2022-07-21T06:26:36;23.90;;;16.67;;
67762;SDS011;54566;52.022;5.582;2022-07-21T06:29:03;27.25;;;16.35;;
67762;SDS011;54566;52.022;5.582;2022-07-21T06:31:31;28.42;;;16.70;;
67762;SDS011;54566;52.022;5.582;2022-07-21T06:33:57;36.17;;;17.45;;
67762;SDS011;54566;52.022;5.582;2022-07-21T06:36:23;29.10;;;17.23;;
67762;SDS011;54566;52.022;5.582;2022-07-21T06:38:49;28.00;;;17.13;;
67762;SDS011;54566;52.022;5.582;2022-07-21T06:41:15;27.38;;;18.08;;
67762;SDS011;54566;52.022;5.582;2022-07-21T06:43:40;29.48;;;16.92;;
67762;SDS011;54566;52.022;5.582;2022-07-21T06:46:06;26.42;;;16.73;;
67762;SDS011;54566;52.022;5.582;2022-07-21T06:48:32;27.15;;;16.60;;
67762;SDS011;54566;52.022;5.582;2022-07-21T06:50:59;28.00;;;16.73;;
67762;SDS011;54566;52.022;5.582;2022-07-21T06:53:25;29.73;;;17.83;;
67762;SDS011;54566;52.022;5.582;2022-07-21T06:55:51;32.90;;;17.77;;
67762;SDS011;54566;52.022;5.582;2022-07-21T06:58:21;27.73;;;16.33;;
67762;SDS011;54566;52.022;5.582;2022-07-21T07:00:49;29.05;;;17.65;;
67762;SDS011;54566;52.022;5.582;2022-07-21T07:03:15;32.63;;;18.80;;
67762;SDS011;54566;52.022;5.582;2022-07-21T07:05:42;33.85;;;17.77;;
67762;SDS011;54566;52.022;5.582;2022-07-21T07:08:08;28.17;;;17.80;;
67762;SDS011;54566;52.022;5.582;2022-07-21T07:10:34;35.20;;;19.52;;
67762;SDS011;54566;52.022;5.582;2022-07-21T07:13:00;32.45;;;18.88;;
67762;SDS011;54566;52.022;5.582;2022-07-21T07:15:27;28.70;;;17.58;;
67762;SDS011;54566;52.022;5.582;2022-07-21T07:17:53;32.40;;;18.58;;
67762;SDS011;54566;52.022;5.582;2022-07-21T07:20:20;30.20;;;18.48;;
67762;SDS011;54566;52.022;5.582;2022-07-21T07:22:46;36.10;;;18.10;;
67762;SDS011;54566;52.022;5.582;2022-07-21T07:25:12;32.72;;;18.60;;
67762;SDS011;54566;52.022;5.582;2022-07-21T07:27:41;31.02;;;16.58;;
67762;SDS011;54566;52.022;5.582;2022-07-21T07:30:08;34.30;;;18.33;;
67762;SDS011;54566;52.022;5.582;2022-07-21T07:32:34;31.08;;;17.67;;
67762;SDS011;54566;52.022;5.582;2022-07-21T07:35:00;31.33;;;18.65;;
67762;SDS011;54566;52.022;5.582;2022-07-21T07:37:26;31.08;;;18.40;;
67762;SDS011;54566;52.022;5.582;2022-07-21T07:39:52;34.60;;;18.67;;
67762;SDS011;54566;52.022;5.582;2022-07-21T07:42:18;34.60;;;18.27;;
67762;SDS011;54566;52.022;5.582;2022-07-21T07:44:44;30.75;;;18.70;;
67762;SDS011;54566;52.022;5.582;2022-07-21T07:47:11;28.20;;;17.52;;
67762;SDS011;54566;52.022;5.582;2022-07-21T07:49:37;29.65;;;18.40;;
67762;SDS011;54566;52.022;5.582;2022-07-21T07:52:03;32.78;;;19.45;;
67762;SDS011;54566;52.022;5.582;2022-07-21T07:54:30;35.90;;;18.97;;
67762;SDS011;54566;52.022;5.582;2022-07-21T07:56:56;35.28;;;18.35;;
67762;SDS011;54566;52.022;5.582;2022-07-21T07:59:22;32.35;;;18.92;;
67762;SDS011;54566;52.022;5.582;2022-07-21T08:01:48;33.80;;;18.67;;
67762;SDS011;54566;52.022;5.582;2022-07-21T08:04:14;33.40;;;18.42;;
67762;SDS011;54566;52.022;5.582;2022-07-21T08:06:40;30.38;;;18.58;;
67762;SDS011;54566;52.022;5.582;2022-07-21T08:09:07;30.55;;;19.48;;
67762;SDS011;54566;52.022;5.582;2022-07-21T08:11:33;35.53;;;18.95;;
67762;SDS011;54566;52.022;5.582;2022-07-21T08:13:59;40.20;;;19.80;;
67762;SDS011;54566;52.022;5.582;2022-07-21T08:16:25;29.80;;;18.90;;
67762;SDS011;54566;52.022;5.582;2022-07-21T08:18:51;41.55;;;20.40;;
67762;SDS011;54566;52.022;5.582;2022-07-21T08:21:17;34.28;;;19.05;;
67762;SDS011;54566;52.022;5.582;2022-07-21T08:23:43;38.25;;;18.75;;
67762;SDS011;54566;52.022;5.582;2022-07-21T08:26:09;35.95;;;20.65;;
67762;SDS011;54566;52.022;5.582;2022-07-21T08:28:35;39.72;;;20.55;;
67762;SDS011;54566;52.022;5.582;2022-07-21T08:31:01;43.88;;;22.58;;
67762;SDS011;54566;52.022;5.582;2022-07-21T08:33:27;44.83;;;25.10;;
67762;SDS011;54566;52.022;5.582;2022-07-21T08:35:53;55.05;;;30.02;;
67762;SDS011;54566;52.022;5.582;2022-07-21T08:38:19;61.00;;;32.72;;
67762;SDS011;54566;52.022;5.582;2022-07-21T08:40:45;62.33;;;30.45;;
67762;SDS011;54566;52.022;5.582;2022-07-21T08:43:12;73.78;;;33.25;;
67762;SDS011;54566;52.022;5.582;2022-07-21T08:45:40;66.47;;;32.65;;
67762;SDS011;54566;52.022;5.582;2022-07-21T08:48:06;68.22;;;31.90;;
67762;SDS011;54566;52.022;5.582;2022-07-21T08:50:34;41.08;;;25.83;;
67762;SDS011;54566;52.022;5.582;2022-07-21T08:55:30;47.58;;;23.02;;
67762;SDS011;54566;52.022;5.582;2022-07-21T08:57:56;36.50;;;22.73;;
67762;SDS011;54566;52.022;5.582;2022-07-21T09:00:22;39.63;;;23.67;;
67762;SDS011;54566;52.022;5.582;2022-07-21T09:02:48;38.22;;;22.58;;
67762;SDS011;54566;52.022;5.582;2022-07-21T09:05:14;40.85;;;21.90;;
67762;SDS011;54566;52.022;5.582;2022-07-21T09:07:54;41.35;;;22.88;;
67762;SDS011;54566;52.022;5.582;2022-07-21T09:10:23;40.25;;;20.67;;
67762;SDS011;54566;52.022;5.582;2022-07-21T09:12:51;32.40;;;18.40;;
67762;SDS011;54566;52.022;5.582;2022-07-21T09:17:47;26.98;;;15.07;;
67762;SDS011;54566;52.022;5.582;2022-07-21T09:20:28;28.20;;;16.55;;
67762;SDS011;54566;52.022;5.582;2022-07-21T09:23:01;27.42;;;15.75;;
67762;SDS011;54566;52.022;5.582;2022-07-21T09:25:34;24.92;;;15.02;;
67762;SDS011;54566;52.022;5.582;2022-07-21T09:28:08;24.27;;;15.55;;
67762;SDS011;54566;52.022;5.582;2022-07-21T09:30:47;23.48;;;15.68;;
67762;SDS011;54566;52.022;5.582;2022-07-21T09:33:20;28.42;;;16.63;;
67762;SDS011;54566;52.022;5.582;2022-07-21T09:35:56;25.98;;;16.88;;
67762;SDS011;54566;52.022;5.582;2022-07-21T09:38:22;24.55;;;15.52;;
67762;SDS011;54566;52.022;5.582;2022-07-21T09:40:48;26.35;;;16.40;;
67762;SDS011;54566;52.022;5.582;2022-07-21T09:46:00;26.45;;;16.60;;
67762;SDS011;54566;52.022;5.582;2022-07-21T09:48:33;30.98;;;16.45;;
67762;SDS011;54566;52.022;5.582;2022-07-21T09:53:52;26.52;;;15.85;;
67762;SDS011;54566;52.022;5.582;2022-07-21T09:56:18;24.65;;;16.15;;
67762;SDS011;54566;52.022;5.582;2022-07-21T09:58:49;27.00;;;16.27;;
67762;SDS011;54566;52.022;5.582;2022-07-21T10:01:15;20.58;;;13.75;;
67762;SDS011;54566;52.022;5.582;2022-07-21T10:03:45;20.92;;;15.18;;
67762;SDS011;54566;52.022;5.582;2022-07-21T10:06:12;23.10;;;14.95;;
67762;SDS011;54566;52.022;5.582;2022-07-21T10:08:39;21.67;;;14.63;;
67762;SDS011;54566;52.022;5.582;2022-07-21T10:11:05;16.35;;;10.98;;
67762;SDS011;54566;52.022;5.582;2022-07-21T10:13:32;12.30;;;8.85;;
67762;SDS011;54566;52.022;5.582;2022-07-21T10:15:58;17.55;;;9.95;;
67762;SDS011;54566;52.022;5.582;2022-07-21T10:18:26;12.50;;;8.23;;
67762;SDS011;54566;52.022;5.582;2022-07-21T10:21:02;10.10;;;7.45;;
67762;SDS011;54566;52.022;5.582;2022-07-21T10:23:40;11.95;;;7.03;;
67762;SDS011;54566;52.022;5.582;2022-07-21T10:26:07;8.63;;;6.18;;
67762;SDS011;54566;52.022;5.582;2022-07-21T10:28:33;7.25;;;5.60;;
67762;SDS011;54566;52.022;5.582;2022-07-21T10:31:00;7.80;;;5.78;;
67762;SDS011;54566;52.022;5.582;2022-07-21T10:41:36;6.65;;;4.68;;
67762;SDS011;54566;52.022;5.582;2022-07-21T10:44:02;5.30;;;4.18;;
67762;SDS011;54566;52.022;5.582;2022-07-21T10:46:32;5.55;;;4.00;;
67762;SDS011;54566;52.022;5.582;2022-07-21T10:48:58;7.07;;;4.40;;
67762;SDS011;54566;52.022;5.582;2022-07-21T10:51:26;5.43;;;4.22;;
67762;SDS011;54566;52.022;5.582;2022-07-21T10:56:37;7.05;;;4.07;;
67762;SDS011;54566;52.022;5.582;2022-07-21T10:59:03;9.50;;;4.13;;
67762;SDS011;54566;52.022;5.582;2022-07-21T11:01:29;8.80;;;5.18;;
67762;SDS011;54566;52.022;5.582;2022-07-21T11:04:10;5.38;;;3.88;;
67762;SDS011;54566;52.022;5.582;2022-07-21T11:06:37;6.18;;;3.85;;
67762;SDS011;54566;52.022;5.582;2022-07-21T11:11:30;8.20;;;4.28;;
67762;SDS011;54566;52.022;5.582;2022-07-21T11:14:10;7.18;;;4.55;;
67762;SDS011;54566;52.022;5.582;2022-07-21T11:21:54;6.93;;;4.97;;
67762;SDS011;54566;52.022;5.582;2022-07-21T11:24:21;7.25;;;4.63;;
67762;SDS011;54566;52.022;5.582;2022-07-21T11:26:57;8.65;;;5.90;;
67762;SDS011;54566;52.022;5.582;2022-07-21T11:29:23;8.43;;;7.07;;
67762;SDS011;54566;52.022;5.582;2022-07-21T11:31:50;12.07;;;6.65;;
67762;SDS011;54566;52.022;5.582;2022-07-21T11:34:16;8.52;;;6.07;;
67762;SDS011;54566;52.022;5.582;2022-07-21T11:36:42;9.48;;;6.55;;
67762;SDS011;54566;52.022;5.582;2022-07-21T11:39:14;9.73;;;6.05;;
67762;SDS011;54566;52.022;5.582;2022-07-21T11:41:41;9.95;;;6.30;;
67762;SDS011;54566;52.022;5.582;2022-07-21T11:44:08;12.75;;;6.50;;
67762;SDS011;54566;52.022;5.582;2022-07-21T11:46:48;9.27;;;6.50;;
67762;SDS011;54566;52.022;5.582;2022-07-21T11:49:15;8.63;;;6.18;;
67762;SDS011;54566;52.022;5.582;2022-07-21T11:54:20;13.32;;;6.28;;
67762;SDS011;54566;52.022;5.582;2022-07-21T11:56:47;11.77;;;6.90;;
67762;SDS011;54566;52.022;5.582;2022-07-21T11:59:13;12.05;;;7.20;;
67762;SDS011;54566;52.022;5.582;2022-07-21T12:04:44;8.30;;;6.20;;
67762;SDS011;54566;52.022;5.582;2022-07-21T12:09:43;14.60;;;7.38;;
67762;SDS011;54566;52.022;5.582;2022-07-21T12:12:10;10.07;;;6.85;;
67762;SDS011;54566;52.022;5.582;2022-07-21T12:17:08;10.23;;;7.45;;
67762;SDS011;54566;52.022;5.582;2022-07-21T12:19:35;11.30;;;7.15;;
67762;SDS011;54566;52.022;5.582;2022-07-21T12:22:01;15.05;;;7.60;;
67762;SDS011;54566;52.022;5.582;2022-07-21T12:27:12;13.48;;;6.53;;
67762;SDS011;54566;52.022;5.582;2022-07-21T12:29:38;8.75;;;5.63;;
67762;SDS011;54566;52.022;5.582;2022-07-21T12:32:04;9.07;;;5.32;;
67762;SDS011;54566;52.022;5.582;2022-07-21T12:34:30;7.22;;;5.13;;
67762;SDS011;54566;52.022;5.582;2022-07-21T12:36:56;9.13;;;4.88;;
67762;SDS011;54566;52.022;5.582;2022-07-21T12:39:24;7.00;;;4.50;;
67762;SDS011;54566;52.022;5.582;2022-07-21T12:42:10;5.55;;;4.30;;
67762;SDS011;54566;52.022;5.582;2022-07-21T12:44:53;7.70;;;4.57;;
67762;SDS011;54566;52.022;5.582;2022-07-21T12:47:19;6.82;;;4.57;;
67762;SDS011;54566;52.022;5.582;2022-07-21T12:49:59;4.55;;;4.15;;
67762;SDS011;54566;52.022;5.582;2022-07-21T12:52:25;7.18;;;4.22;;
67762;SDS011;54566;52.022;5.582;2022-07-21T12:54:52;7.55;;;4.60;;
67762;SDS011;54566;52.022;5.582;2022-07-21T12:57:18;6.43;;;4.40;;
67762;SDS011;54566;52.022;5.582;2022-07-21T12:59:44;7.20;;;4.20;;
67762;SDS011;54566;52.022;5.582;2022-07-21T13:02:10;7.07;;;4.15;;
67762;SDS011;54566;52.022;5.582;2022-07-21T13:04:36;5.18;;;4.03;;
67762;SDS011;54566;52.022;5.582;2022-07-21T13:07:02;5.13;;;4.28;;
67762;SDS011;54566;52.022;5.582;2022-07-21T13:09:28;9.00;;;4.32;;
67762;SDS011;54566;52.022;5.582;2022-07-21T13:11:54;6.22;;;3.72;;
67762;SDS011;54566;52.022;5.582;2022-07-21T13:14:20;5.75;;;3.60;;
67762;SDS011;54566;52.022;5.582;2022-07-21T13:16:46;7.75;;;4.13;;
67762;SDS011;54566;52.022;5.582;2022-07-21T13:19:12;6.47;;;3.58;;
67762;SDS011;54566;52.022;5.582;2022-07-21T13:21:38;5.28;;;3.67;;
67762;SDS011;54566;52.022;5.582;2022-07-21T13:24:04;10.85;;;3.85;;
67762;SDS011;54566;52.022;5.582;2022-07-21T13:26:30;7.75;;;3.42;;
67762;SDS011;54566;52.022;5.582;2022-07-21T13:28:56;7.00;;;3.40;;
67762;SDS011;54566;52.022;5.582;2022-07-21T13:31:22;5.50;;;3.60;;
67762;SDS011;54566;52.022;5.582;2022-07-21T13:33:48;5.78;;;3.65;;
67762;SDS011;54566;52.022;5.582;2022-07-21T13:36:14;5.32;;;3.40;;
67762;SDS011;54566;52.022;5.582;2022-07-21T13:38:40;4.45;;;3.30;;
67762;SDS011;54566;52.022;5.582;2022-07-21T13:41:06;6.55;;;3.30;;
67762;SDS011;54566;52.022;5.582;2022-07-21T13:43:32;7.70;;;3.85;;
67762;SDS011;54566;52.022;5.582;2022-07-21T13:46:00;4.70;;;3.38;;
67762;SDS011;54566;52.022;5.582;2022-07-21T13:48:26;4.25;;;3.28;;
67762;SDS011;54566;52.022;5.582;2022-07-21T13:50:52;3.95;;;3.20;;
67762;SDS011;54566;52.022;5.582;2022-07-21T13:53:18;5.07;;;2.97;;
67762;SDS011;54566;52.022;5.582;2022-07-21T13:55:44;6.18;;;3.47;;
67762;SDS011;54566;52.022;5.582;2022-07-21T13:58:10;3.65;;;2.30;;
67762;SDS011;54566;52.022;5.582;2022-07-21T14:00:36;3.80;;;2.63;;
67762;SDS011;54566;52.022;5.582;2022-07-21T14:03:02;5.72;;;3.03;;
67762;SDS011;54566;52.022;5.582;2022-07-21T14:05:28;4.65;;;2.58;;
67762;SDS011;54566;52.022;5.582;2022-07-21T14:07:54;5.70;;;2.80;;
67762;SDS011;54566;52.022;5.582;2022-07-21T14:10:20;5.35;;;2.38;;
67762;SDS011;54566;52.022;5.582;2022-07-21T14:12:46;4.03;;;2.25;;
67762;SDS011;54566;52.022;5.582;2022-07-21T14:15:12;8.80;;;2.92;;
67762;SDS011;54566;52.022;5.582;2022-07-21T14:17:38;5.53;;;2.20;;
67762;SDS011;54566;52.022;5.582;2022-07-21T14:20:04;4.82;;;2.60;;
67762;SDS011;54566;52.022;5.582;2022-07-21T14:22:30;2.97;;;2.08;;
67762;SDS011;54566;52.022;5.582;2022-07-21T14:24:56;4.20;;;2.40;;
67762;SDS011;54566;52.022;5.582;2022-07-21T14:27:41;4.10;;;2.17;;
67762;SDS011;54566;52.022;5.582;2022-07-21T14:30:07;4.88;;;2.00;;
67762;SDS011;54566;52.022;5.582;2022-07-21T14:32:33;3.05;;;2.00;;
67762;SDS011;54566;52.022;5.582;2022-07-21T14:34:59;3.92;;;2.17;;
67762;SDS011;54566;52.022;5.582;2022-07-21T14:37:25;2.65;;;2.10;;
67762;SDS011;54566;52.022;5.582;2022-07-21T14:39:51;4.10;;;2.30;;
67762;SDS011;54566;52.022;5.582;2022-07-21T14:42:17;8.35;;;2.45;;
67762;SDS011;54566;52.022;5.582;2022-07-21T14:44:43;4.43;;;2.50;;
67762;SDS011;54566;52.022;5.582;2022-07-21T14:47:10;4.97;;;2.47;;
67762;SDS011;54566;52.022;5.582;2022-07-21T14:49:37;4.75;;;2.13;;
67762;SDS011;54566;52.022;5.582;2022-07-21T14:52:03;3.15;;;2.10;;
67762;SDS011;54566;52.022;5.582;2022-07-21T14:54:29;5.00;;;2.10;;
67762;SDS011;54566;52.022;5.582;2022-07-21T14:56:56;3.15;;;1.98;;
67762;SDS011;54566;52.022;5.582;2022-07-21T14:59:21;7.07;;;2.63;;
67762;SDS011;54566;52.022;5.582;2022-07-21T15:01:47;7.68;;;2.70;;
67762;SDS011;54566;52.022;5.582;2022-07-21T15:04:12;4.07;;;2.28;;
67762;SDS011;54566;52.022;5.582;2022-07-21T15:06:38;5.93;;;2.30;;
67762;SDS011;54566;52.022;5.582;2022-07-21T15:09:03;5.95;;;2.30;;
67762;SDS011;54566;52.022;5.582;2022-07-21T15:11:29;11.48;;;2.72;;